sensor_id;sensor_type;location;lat;lon;timestamp;P1;durP1;ratioP1;P2;durP2;ratioP2
42886;SDS011;29032;56.028;92.904;2022-11-20T00:02:51;2.03;;;1.70;;
42886;SDS011;29032;56.028;92.904;2022-11-20T00:07:53;1.50;;;1.40;;
42886;SDS011;29032;56.028;92.904;2022-11-20T00:12:57;2.70;;;1.40;;
42886;SDS011;29032;56.028;92.904;2022-11-20T00:17:59;1.73;;;1.50;;
42886;SDS011;29032;56.028;92.904;2022-11-20T00:23:01;1.20;;;1.10;;
42886;SDS011;29032;56.028;92.904;2022-11-20T00:28:05;2.00;;;1.47;;
42886;SDS011;29032;56.028;92.904;2022-11-20T00:33:07;2.50;;;1.13;;
42886;SDS011;29032;56.028;92.904;2022-11-20T00:38:09;1.40;;;1.30;;
42886;SDS011;29032;56.028;92.904;2022-11-20T00:43:12;1.73;;;1.23;;
42886;SDS011;29032;56.028;92.904;2022-11-20T00:48:15;2.90;;;1.40;;
42886;SDS011;29032;56.028;92.904;2022-11-20T00:53:18;1.70;;;1.40;;
42886;SDS011;29032;56.028;92.904;2022-11-20T00:58:22;1.57;;;1.37;;
42886;SDS011;29032;56.028;92.904;2022-11-20T01:03:25;1.17;;;1.07;;
42886;SDS011;29032;56.028;92.904;2022-11-20T01:08:29;2.50;;;1.57;;
42886;SDS011;29032;56.028;92.904;2022-11-20T01:13:33;1.03;;;1.00;;
42886;SDS011;29032;56.028;92.904;2022-11-20T01:18:36;1.20;;;1.10;;
42886;SDS011;29032;56.028;92.904;2022-11-20T01:23:40;1.33;;;1.10;;
42886;SDS011;29032;56.028;92.904;2022-11-20T01:28:45;1.17;;;1.03;;
42886;SDS011;29032;56.028;92.904;2022-11-20T01:33:48;1.10;;;1.00;;
42886;SDS011;29032;56.028;92.904;2022-11-20T01:38:52;2.03;;;1.20;;
42886;SDS011;29032;56.028;92.904;2022-11-20T01:43:56;1.37;;;1.20;;
42886;SDS011;29032;56.028;92.904;2022-11-20T01:48:59;2.30;;;1.20;;
42886;SDS011;29032;56.028;92.904;2022-11-20T01:54:04;1.83;;;1.27;;
42886;SDS011;29032;56.028;92.904;2022-11-20T01:59:12;3.13;;;1.50;;
42886;SDS011;29032;56.028;92.904;2022-11-20T02:04:17;1.85;;;1.27;;
42886;SDS011;29032;56.028;92.904;2022-11-20T02:09:20;2.43;;;1.23;;
42886;SDS011;29032;56.028;92.904;2022-11-20T02:14:24;1.10;;;1.00;;
42886;SDS011;29032;56.028;92.904;2022-11-20T02:19:28;2.27;;;1.40;;
42886;SDS011;29032;56.028;92.904;2022-11-20T02:24:33;1.80;;;1.40;;
42886;SDS011;29032;56.028;92.904;2022-11-20T02:29:36;3.63;;;1.80;;
42886;SDS011;29032;56.028;92.904;2022-11-20T02:34:42;3.37;;;2.10;;
42886;SDS011;29032;56.028;92.904;2022-11-20T02:39:45;4.33;;;2.07;;
42886;SDS011;29032;56.028;92.904;2022-11-20T02:44:49;3.43;;;1.80;;
42886;SDS011;29032;56.028;92.904;2022-11-20T02:49:51;2.93;;;2.33;;
42886;SDS011;29032;56.028;92.904;2022-11-20T02:54:55;3.97;;;2.80;;
42886;SDS011;29032;56.028;92.904;2022-11-20T02:59:57;4.23;;;2.10;;
42886;SDS011;29032;56.028;92.904;2022-11-20T03:04:59;4.53;;;2.47;;
42886;SDS011;29032;56.028;92.904;2022-11-20T03:10:03;4.20;;;2.10;;
42886;SDS011;29032;56.028;92.904;2022-11-20T03:15:06;5.20;;;2.40;;
42886;SDS011;29032;56.028;92.904;2022-11-20T03:20:09;5.90;;;2.63;;
42886;SDS011;29032;56.028;92.904;2022-11-20T03:25:13;5.73;;;3.40;;
42886;SDS011;29032;56.028;92.904;2022-11-20T03:30:16;5.50;;;3.20;;
42886;SDS011;29032;56.028;92.904;2022-11-20T03:35:18;7.17;;;3.40;;
42886;SDS011;29032;56.028;92.904;2022-11-20T03:40:21;6.73;;;3.60;;
42886;SDS011;29032;56.028;92.904;2022-11-20T03:45:23;7.77;;;4.07;;
42886;SDS011;29032;56.028;92.904;2022-11-20T03:50:25;10.23;;;4.33;;
42886;SDS011;29032;56.028;92.904;2022-11-20T03:55:29;8.27;;;4.30;;
42886;SDS011;29032;56.028;92.904;2022-11-20T04:00:31;12.30;;;4.73;;
42886;SDS011;29032;56.028;92.904;2022-11-20T04:05:33;8.80;;;4.80;;
42886;SDS011;29032;56.028;92.904;2022-11-20T04:10:37;13.77;;;5.13;;
42886;SDS011;29032;56.028;92.904;2022-11-20T04:15:43;13.15;;;6.53;;
42886;SDS011;29032;56.028;92.904;2022-11-20T04:20:45;11.03;;;5.80;;
42886;SDS011;29032;56.028;92.904;2022-11-20T04:25:49;13.67;;;6.77;;
42886;SDS011;29032;56.028;92.904;2022-11-20T04:30:51;14.00;;;7.23;;
42886;SDS011;29032;56.028;92.904;2022-11-20T04:35:53;13.57;;;6.27;;
42886;SDS011;29032;56.028;92.904;2022-11-20T04:40:57;10.73;;;5.40;;
42886;SDS011;29032;56.028;92.904;2022-11-20T04:46:00;12.10;;;7.00;;
42886;SDS011;29032;56.028;92.904;2022-11-20T04:51:03;14.20;;;7.13;;
42886;SDS011;29032;56.028;92.904;2022-11-20T04:56:07;14.47;;;7.17;;
42886;SDS011;29032;56.028;92.904;2022-11-20T05:01:11;15.10;;;6.80;;
42886;SDS011;29032;56.028;92.904;2022-11-20T05:06:15;13.13;;;7.17;;
42886;SDS011;29032;56.028;92.904;2022-11-20T05:11:20;12.33;;;5.70;;
42886;SDS011;29032;56.028;92.904;2022-11-20T05:16:23;15.00;;;6.27;;
42886;SDS011;29032;56.028;92.904;2022-11-20T05:21:25;14.30;;;7.07;;
42886;SDS011;29032;56.028;92.904;2022-11-20T05:26:29;12.70;;;7.63;;
42886;SDS011;29032;56.028;92.904;2022-11-20T05:31:31;13.67;;;7.03;;
42886;SDS011;29032;56.028;92.904;2022-11-20T05:36:34;16.37;;;7.37;;
42886;SDS011;29032;56.028;92.904;2022-11-20T05:41:37;13.53;;;7.37;;
42886;SDS011;29032;56.028;92.904;2022-11-20T05:46:39;16.13;;;7.87;;
42886;SDS011;29032;56.028;92.904;2022-11-20T05:51:41;17.80;;;8.10;;
42886;SDS011;29032;56.028;92.904;2022-11-20T05:56:45;17.63;;;7.77;;
42886;SDS011;29032;56.028;92.904;2022-11-20T06:01:47;16.03;;;7.47;;
42886;SDS011;29032;56.028;92.904;2022-11-20T06:06:49;16.97;;;7.60;;
42886;SDS011;29032;56.028;92.904;2022-11-20T06:11:53;9.97;;;5.17;;
42886;SDS011;29032;56.028;92.904;2022-11-20T06:16:55;22.43;;;9.13;;
42886;SDS011;29032;56.028;92.904;2022-11-20T06:21:57;18.73;;;7.20;;
42886;SDS011;29032;56.028;92.904;2022-11-20T06:27:00;19.57;;;8.93;;
42886;SDS011;29032;56.028;92.904;2022-11-20T06:32:03;20.23;;;8.17;;
42886;SDS011;29032;56.028;92.904;2022-11-20T06:37:05;16.73;;;8.40;;
42886;SDS011;29032;56.028;92.904;2022-11-20T06:42:09;10.53;;;6.33;;
42886;SDS011;29032;56.028;92.904;2022-11-20T06:47:11;11.70;;;5.83;;
42886;SDS011;29032;56.028;92.904;2022-11-20T06:52:13;9.63;;;5.90;;
42886;SDS011;29032;56.028;92.904;2022-11-20T06:57:16;11.67;;;6.13;;
42886;SDS011;29032;56.028;92.904;2022-11-20T07:02:18;10.90;;;5.33;;
42886;SDS011;29032;56.028;92.904;2022-11-20T07:07:21;14.17;;;6.57;;
42886;SDS011;29032;56.028;92.904;2022-11-20T07:12:25;10.50;;;5.67;;
42886;SDS011;29032;56.028;92.904;2022-11-20T07:17:27;11.80;;;5.63;;
42886;SDS011;29032;56.028;92.904;2022-11-20T07:22:29;7.83;;;4.47;;
42886;SDS011;29032;56.028;92.904;2022-11-20T07:27:36;8.63;;;4.80;;
42886;SDS011;29032;56.028;92.904;2022-11-20T07:32:38;7.50;;;4.83;;
42886;SDS011;29032;56.028;92.904;2022-11-20T07:37:40;8.03;;;4.63;;
42886;SDS011;29032;56.028;92.904;2022-11-20T07:42:49;10.10;;;4.60;;
42886;SDS011;29032;56.028;92.904;2022-11-20T07:47:52;10.47;;;5.67;;
42886;SDS011;29032;56.028;92.904;2022-11-20T07:53:00;12.80;;;7.60;;
42886;SDS011;29032;56.028;92.904;2022-11-20T07:58:07;16.30;;;8.40;;
42886;SDS011;29032;56.028;92.904;2022-11-20T08:03:12;18.07;;;7.97;;
42886;SDS011;29032;56.028;92.904;2022-11-20T08:08:14;18.57;;;9.73;;
42886;SDS011;29032;56.028;92.904;2022-11-20T08:13:19;18.43;;;8.37;;
42886;SDS011;29032;56.028;92.904;2022-11-20T08:18:21;19.67;;;8.83;;
42886;SDS011;29032;56.028;92.904;2022-11-20T08:23:23;13.77;;;6.70;;
42886;SDS011;29032;56.028;92.904;2022-11-20T08:28:27;11.23;;;4.97;;
42886;SDS011;29032;56.028;92.904;2022-11-20T08:33:29;9.37;;;5.00;;
42886;SDS011;29032;56.028;92.904;2022-11-20T08:38:31;9.57;;;5.77;;
42886;SDS011;29032;56.028;92.904;2022-11-20T08:43:35;10.07;;;5.40;;
42886;SDS011;29032;56.028;92.904;2022-11-20T08:48:37;16.87;;;7.97;;
42886;SDS011;29032;56.028;92.904;2022-11-20T08:53:40;16.77;;;6.97;;
42886;SDS011;29032;56.028;92.904;2022-11-20T08:58:44;16.67;;;7.70;;
42886;SDS011;29032;56.028;92.904;2022-11-20T09:03:46;13.87;;;7.23;;
42886;SDS011;29032;56.028;92.904;2022-11-20T09:08:51;14.70;;;6.40;;
42886;SDS011;29032;56.028;92.904;2022-11-20T09:13:55;14.20;;;7.50;;
42886;SDS011;29032;56.028;92.904;2022-11-20T09:18:57;14.73;;;6.67;;
42886;SDS011;29032;56.028;92.904;2022-11-20T09:23:59;13.93;;;5.53;;
42886;SDS011;29032;56.028;92.904;2022-11-20T09:29:02;6.63;;;3.80;;
42886;SDS011;29032;56.028;92.904;2022-11-20T09:34:05;10.37;;;4.57;;
42886;SDS011;29032;56.028;92.904;2022-11-20T09:39:07;25.30;;;9.70;;
42886;SDS011;29032;56.028;92.904;2022-11-20T09:44:13;21.67;;;9.17;;
42886;SDS011;29032;56.028;92.904;2022-11-20T09:49:28;12.90;;;6.53;;
42886;SDS011;29032;56.028;92.904;2022-11-20T09:54:42;17.37;;;5.60;;
42886;SDS011;29032;56.028;92.904;2022-11-20T09:59:46;12.47;;;4.13;;
42886;SDS011;29032;56.028;92.904;2022-11-20T10:04:53;15.90;;;5.50;;
42886;SDS011;29032;56.028;92.904;2022-11-20T10:10:00;7.73;;;3.80;;
42886;SDS011;29032;56.028;92.904;2022-11-20T10:15:10;11.13;;;4.70;;
42886;SDS011;29032;56.028;92.904;2022-11-20T10:20:24;19.97;;;7.30;;
42886;SDS011;29032;56.028;92.904;2022-11-20T10:25:35;11.00;;;4.97;;
42886;SDS011;29032;56.028;92.904;2022-11-20T10:30:41;9.30;;;4.07;;
42886;SDS011;29032;56.028;92.904;2022-11-20T10:35:45;6.63;;;3.87;;
42886;SDS011;29032;56.028;92.904;2022-11-20T10:40:54;9.13;;;3.67;;
42886;SDS011;29032;56.028;92.904;2022-11-20T10:46:02;5.13;;;2.97;;
42886;SDS011;29032;56.028;92.904;2022-11-20T10:51:10;7.30;;;3.40;;
42886;SDS011;29032;56.028;92.904;2022-11-20T10:56:20;6.60;;;2.90;;
42886;SDS011;29032;56.028;92.904;2022-11-20T11:01:27;3.80;;;2.60;;
42886;SDS011;29032;56.028;92.904;2022-11-20T11:06:36;4.77;;;2.33;;
42886;SDS011;29032;56.028;92.904;2022-11-20T11:11:42;8.60;;;3.58;;
42886;SDS011;29032;56.028;92.904;2022-11-20T11:16:50;12.53;;;6.30;;
42886;SDS011;29032;56.028;92.904;2022-11-20T11:21:54;15.60;;;6.50;;
42886;SDS011;29032;56.028;92.904;2022-11-20T11:26:57;18.53;;;7.77;;
42886;SDS011;29032;56.028;92.904;2022-11-20T11:32:06;17.67;;;7.57;;
42886;SDS011;29032;56.028;92.904;2022-11-20T11:37:11;15.20;;;6.40;;
42886;SDS011;29032;56.028;92.904;2022-11-20T11:42:18;15.77;;;6.83;;
42886;SDS011;29032;56.028;92.904;2022-11-20T11:47:23;20.87;;;6.67;;
42886;SDS011;29032;56.028;92.904;2022-11-20T11:52:27;18.60;;;6.53;;
42886;SDS011;29032;56.028;92.904;2022-11-20T11:57:34;17.20;;;7.17;;
42886;SDS011;29032;56.028;92.904;2022-11-20T12:02:48;15.50;;;6.47;;
42886;SDS011;29032;56.028;92.904;2022-11-20T12:07:58;14.77;;;6.13;;
42886;SDS011;29032;56.028;92.904;2022-11-20T12:13:11;13.40;;;6.33;;
42886;SDS011;29032;56.028;92.904;2022-11-20T12:18:23;18.63;;;7.07;;
42886;SDS011;29032;56.028;92.904;2022-11-20T12:23:26;20.60;;;6.97;;
42886;SDS011;29032;56.028;92.904;2022-11-20T12:28:44;18.27;;;6.30;;
42886;SDS011;29032;56.028;92.904;2022-11-20T12:34:08;15.17;;;5.87;;
42886;SDS011;29032;56.028;92.904;2022-11-20T12:39:28;21.23;;;8.30;;
42886;SDS011;29032;56.028;92.904;2022-11-20T12:44:47;16.13;;;7.37;;
42886;SDS011;29032;56.028;92.904;2022-11-20T12:50:05;16.30;;;6.35;;
42886;SDS011;29032;56.028;92.904;2022-11-20T12:55:21;13.60;;;5.20;;
42886;SDS011;29032;56.028;92.904;2022-11-20T13:00:29;13.43;;;6.30;;
42886;SDS011;29032;56.028;92.904;2022-11-20T13:05:39;12.53;;;5.37;;
42886;SDS011;29032;56.028;92.904;2022-11-20T13:10:51;16.70;;;6.03;;
42886;SDS011;29032;56.028;92.904;2022-11-20T13:16:00;12.20;;;5.23;;
42886;SDS011;29032;56.028;92.904;2022-11-20T13:21:16;17.77;;;5.60;;
42886;SDS011;29032;56.028;92.904;2022-11-20T13:26:20;11.43;;;4.77;;
42886;SDS011;29032;56.028;92.904;2022-11-20T13:31:27;10.77;;;4.67;;
42886;SDS011;29032;56.028;92.904;2022-11-20T13:36:34;14.40;;;5.40;;
42886;SDS011;29032;56.028;92.904;2022-11-20T13:41:36;17.67;;;6.70;;
42886;SDS011;29032;56.028;92.904;2022-11-20T13:46:40;17.20;;;7.43;;
42886;SDS011;29032;56.028;92.904;2022-11-20T13:51:45;18.00;;;5.93;;
42886;SDS011;29032;56.028;92.904;2022-11-20T13:56:52;12.60;;;4.57;;
42886;SDS011;29032;56.028;92.904;2022-11-20T14:02:05;13.37;;;5.93;;
42886;SDS011;29032;56.028;92.904;2022-11-20T14:07:16;21.43;;;7.43;;
42886;SDS011;29032;56.028;92.904;2022-11-20T14:12:22;21.08;;;6.82;;
42886;SDS011;29032;56.028;92.904;2022-11-20T14:17:30;11.50;;;4.80;;
42886;SDS011;29032;56.028;92.904;2022-11-20T14:22:35;13.90;;;5.77;;
42886;SDS011;29032;56.028;92.904;2022-11-20T14:27:38;13.87;;;5.77;;
42886;SDS011;29032;56.028;92.904;2022-11-20T14:32:42;8.60;;;4.07;;
42886;SDS011;29032;56.028;92.904;2022-11-20T14:37:48;16.50;;;5.23;;
42886;SDS011;29032;56.028;92.904;2022-11-20T14:43:25;17.73;;;6.03;;
42886;SDS011;29032;56.028;92.904;2022-11-20T14:48:29;16.73;;;7.00;;
42886;SDS011;29032;56.028;92.904;2022-11-20T14:53:34;18.03;;;6.80;;
42886;SDS011;29032;56.028;92.904;2022-11-20T14:58:37;8.57;;;3.43;;
42886;SDS011;29032;56.028;92.904;2022-11-20T15:03:40;10.93;;;3.57;;
42886;SDS011;29032;56.028;92.904;2022-11-20T15:08:50;9.97;;;3.23;;
42886;SDS011;29032;56.028;92.904;2022-11-20T15:13:54;11.80;;;3.60;;
42886;SDS011;29032;56.028;92.904;2022-11-20T15:18:56;7.30;;;3.30;;
42886;SDS011;29032;56.028;92.904;2022-11-20T15:23:58;7.87;;;3.07;;
42886;SDS011;29032;56.028;92.904;2022-11-20T15:29:02;7.53;;;2.40;;
42886;SDS011;29032;56.028;92.904;2022-11-20T15:34:05;7.57;;;3.20;;
42886;SDS011;29032;56.028;92.904;2022-11-20T15:39:10;5.43;;;2.07;;
42886;SDS011;29032;56.028;92.904;2022-11-20T15:44:14;4.63;;;2.23;;
42886;SDS011;29032;56.028;92.904;2022-11-20T15:49:17;4.67;;;1.83;;
42886;SDS011;29032;56.028;92.904;2022-11-20T15:54:20;4.07;;;1.67;;
42886;SDS011;29032;56.028;92.904;2022-11-20T15:59:24;3.90;;;1.67;;
42886;SDS011;29032;56.028;92.904;2022-11-20T16:04:26;2.60;;;1.67;;
42886;SDS011;29032;56.028;92.904;2022-11-20T16:09:29;3.67;;;1.73;;
42886;SDS011;29032;56.028;92.904;2022-11-20T16:14:33;5.17;;;1.67;;
42886;SDS011;29032;56.028;92.904;2022-11-20T16:19:35;2.93;;;1.50;;
42886;SDS011;29032;56.028;92.904;2022-11-20T16:24:37;2.97;;;1.40;;
42886;SDS011;29032;56.028;92.904;2022-11-20T16:29:41;2.47;;;1.60;;
42886;SDS011;29032;56.028;92.904;2022-11-20T16:34:43;4.50;;;1.50;;
42886;SDS011;29032;56.028;92.904;2022-11-20T16:39:45;1.93;;;1.33;;
42886;SDS011;29032;56.028;92.904;2022-11-20T16:44:49;3.17;;;2.10;;
42886;SDS011;29032;56.028;92.904;2022-11-20T16:49:51;5.63;;;2.23;;
42886;SDS011;29032;56.028;92.904;2022-11-20T16:54:53;4.60;;;2.13;;
42886;SDS011;29032;56.028;92.904;2022-11-20T16:59:56;5.40;;;2.07;;
42886;SDS011;29032;56.028;92.904;2022-11-20T17:04:58;3.10;;;1.53;;
42886;SDS011;29032;56.028;92.904;2022-11-20T17:10:01;3.53;;;1.70;;
42886;SDS011;29032;56.028;92.904;2022-11-20T17:15:05;9.70;;;3.70;;
42886;SDS011;29032;56.028;92.904;2022-11-20T17:20:09;8.67;;;4.10;;
42886;SDS011;29032;56.028;92.904;2022-11-20T17:25:11;11.70;;;4.53;;
42886;SDS011;29032;56.028;92.904;2022-11-20T17:30:15;10.73;;;4.77;;
42886;SDS011;29032;56.028;92.904;2022-11-20T17:35:17;8.33;;;3.23;;
42886;SDS011;29032;56.028;92.904;2022-11-20T17:40:19;6.13;;;3.70;;
42886;SDS011;29032;56.028;92.904;2022-11-20T17:45:23;4.50;;;2.37;;
42886;SDS011;29032;56.028;92.904;2022-11-20T17:50:25;3.17;;;2.00;;
42886;SDS011;29032;56.028;92.904;2022-11-20T17:55:27;2.57;;;1.60;;
42886;SDS011;29032;56.028;92.904;2022-11-20T18:00:30;4.43;;;1.80;;
42886;SDS011;29032;56.028;92.904;2022-11-20T18:05:33;2.43;;;1.47;;
42886;SDS011;29032;56.028;92.904;2022-11-20T18:10:35;1.40;;;1.30;;
42886;SDS011;29032;56.028;92.904;2022-11-20T18:15:38;2.67;;;1.73;;
42886;SDS011;29032;56.028;92.904;2022-11-20T18:20:40;2.43;;;1.40;;
42886;SDS011;29032;56.028;92.904;2022-11-20T18:25:42;3.00;;;1.40;;
42886;SDS011;29032;56.028;92.904;2022-11-20T18:30:46;3.00;;;1.57;;
42886;SDS011;29032;56.028;92.904;2022-11-20T18:35:48;7.27;;;2.60;;
42886;SDS011;29032;56.028;92.904;2022-11-20T18:40:50;5.17;;;2.00;;
42886;SDS011;29032;56.028;92.904;2022-11-20T18:46:01;4.37;;;2.00;;
42886;SDS011;29032;56.028;92.904;2022-11-20T18:51:04;2.93;;;1.60;;
42886;SDS011;29032;56.028;92.904;2022-11-20T18:56:07;2.87;;;1.43;;
42886;SDS011;29032;56.028;92.904;2022-11-20T19:01:11;2.60;;;1.53;;
42886;SDS011;29032;56.028;92.904;2022-11-20T19:06:13;2.37;;;1.40;;
42886;SDS011;29032;56.028;92.904;2022-11-20T19:13:41;2.17;;;1.10;;
42886;SDS011;29032;56.028;92.904;2022-11-20T19:18:54;3.50;;;1.10;;
42886;SDS011;29032;56.028;92.904;2022-11-20T19:23:56;3.17;;;1.40;;
42886;SDS011;29032;56.028;92.904;2022-11-20T19:29:01;3.77;;;1.10;;
42886;SDS011;29032;56.028;92.904;2022-11-20T19:34:04;1.80;;;1.20;;
42886;SDS011;29032;56.028;92.904;2022-11-20T19:39:06;1.30;;;0.93;;
42886;SDS011;29032;56.028;92.904;2022-11-20T19:44:12;1.83;;;1.20;;
42886;SDS011;29032;56.028;92.904;2022-11-20T19:49:18;1.00;;;0.90;;
42886;SDS011;29032;56.028;92.904;2022-11-20T19:54:20;1.53;;;1.10;;
42886;SDS011;29032;56.028;92.904;2022-11-20T19:59:24;3.23;;;0.90;;
42886;SDS011;29032;56.028;92.904;2022-11-20T20:04:26;1.43;;;0.90;;
42886;SDS011;29032;56.028;92.904;2022-11-20T20:09:28;1.10;;;0.80;;
42886;SDS011;29032;56.028;92.904;2022-11-20T20:14:32;3.00;;;0.97;;
42886;SDS011;29032;56.028;92.904;2022-11-20T20:19:34;2.70;;;1.00;;
42886;SDS011;29032;56.028;92.904;2022-11-20T20:24:36;2.00;;;0.80;;
42886;SDS011;29032;56.028;92.904;2022-11-20T20:29:40;2.33;;;1.10;;
42886;SDS011;29032;56.028;92.904;2022-11-20T20:34:42;1.10;;;1.00;;
42886;SDS011;29032;56.028;92.904;2022-11-20T20:39:44;1.37;;;0.80;;
42886;SDS011;29032;56.028;92.904;2022-11-20T20:44:47;0.97;;;0.90;;
42886;SDS011;29032;56.028;92.904;2022-11-20T20:49:49;0.97;;;0.80;;
42886;SDS011;29032;56.028;92.904;2022-11-20T20:54:51;1.07;;;0.80;;
42886;SDS011;29032;56.028;92.904;2022-11-20T20:59:55;3.73;;;1.07;;
42886;SDS011;29032;56.028;92.904;2022-11-20T21:04:57;2.50;;;1.00;;
42886;SDS011;29032;56.028;92.904;2022-11-20T21:09:59;2.07;;;1.70;;
42886;SDS011;29032;56.028;92.904;2022-11-20T21:15:03;1.77;;;1.10;;
42886;SDS011;29032;56.028;92.904;2022-11-20T21:20:07;0.97;;;0.87;;
42886;SDS011;29032;56.028;92.904;2022-11-20T21:25:10;2.57;;;1.27;;
42886;SDS011;29032;56.028;92.904;2022-11-20T21:30:13;1.20;;;1.00;;
42886;SDS011;29032;56.028;92.904;2022-11-20T21:35:16;1.73;;;1.40;;
42886;SDS011;29032;56.028;92.904;2022-11-20T21:40:18;1.00;;;1.00;;
42886;SDS011;29032;56.028;92.904;2022-11-20T21:45:22;1.40;;;1.13;;
42886;SDS011;29032;56.028;92.904;2022-11-20T21:50:24;4.20;;;1.37;;
42886;SDS011;29032;56.028;92.904;2022-11-20T21:55:26;2.80;;;1.50;;
42886;SDS011;29032;56.028;92.904;2022-11-20T22:00:30;2.00;;;1.17;;
42886;SDS011;29032;56.028;92.904;2022-11-20T22:05:32;3.13;;;1.40;;
42886;SDS011;29032;56.028;92.904;2022-11-20T22:10:34;2.63;;;1.50;;
42886;SDS011;29032;56.028;92.904;2022-11-20T22:15:37;3.27;;;1.93;;
42886;SDS011;29032;56.028;92.904;2022-11-20T22:20:40;3.17;;;1.70;;
42886;SDS011;29032;56.028;92.904;2022-11-20T22:25:42;3.07;;;1.67;;
42886;SDS011;29032;56.028;92.904;2022-11-20T22:30:46;3.80;;;1.60;;
42886;SDS011;29032;56.028;92.904;2022-11-20T22:35:48;3.90;;;1.90;;
42886;SDS011;29032;56.028;92.904;2022-11-20T22:40:50;3.17;;;2.00;;
42886;SDS011;29032;56.028;92.904;2022-11-20T22:45:53;3.40;;;2.17;;
42886;SDS011;29032;56.028;92.904;2022-11-20T22:51:02;4.10;;;1.77;;
42886;SDS011;29032;56.028;92.904;2022-11-20T22:56:05;3.47;;;1.80;;
42886;SDS011;29032;56.028;92.904;2022-11-20T23:01:10;3.20;;;1.90;;
42886;SDS011;29032;56.028;92.904;2022-11-20T23:06:15;3.53;;;1.90;;
42886;SDS011;29032;56.028;92.904;2022-11-20T23:11:19;5.40;;;1.93;;
42886;SDS011;29032;56.028;92.904;2022-11-20T23:16:24;4.40;;;1.70;;
42886;SDS011;29032;56.028;92.904;2022-11-20T23:21:27;3.43;;;1.63;;
42886;SDS011;29032;56.028;92.904;2022-11-20T23:26:29;2.77;;;1.80;;
42886;SDS011;29032;56.028;92.904;2022-11-20T23:31:34;2.43;;;1.63;;
42886;SDS011;29032;56.028;92.904;2022-11-20T23:36:36;3.77;;;2.03;;
42886;SDS011;29032;56.028;92.904;2022-11-20T23:41:38;2.23;;;1.70;;
42886;SDS011;29032;56.028;92.904;2022-11-20T23:46:42;5.10;;;2.07;;
42886;SDS011;29032;56.028;92.904;2022-11-20T23:51:44;5.70;;;1.90;;
42886;SDS011;29032;56.028;92.904;2022-11-20T23:56:46;5.70;;;1.97;;
